Time;durP1;ratioP1;P1;durP2;ratioP2;P2;SDS_P1;SDS_P2;PMS_P1;PMS_P2;Temp;Humidity;BMP_temperature;BMP_pressure;BME280_temperature;BME280_humidity;BME280_pressure;Samples;Min_cycle;Max_cycle;Signal;HPM_P1;HPM_P2
2020/12/31 00:01:17;;;;;;;4.80;4.07;;;4.50;99.90;;;;;;5062082;28;20284;-58
2020/12/31 00:03:43;;;;;;;4.83;4.40;;;4.30;99.90;;;;;;5068443;28;20195;-59
2020/12/31 00:06:08;;;;;;;4.93;4.43;;;4.20;99.90;;;;;;5067783;28;20223;-58
2020/12/31 00:08:34;;;;;;;5.90;4.67;;;4.50;99.90;;;;;;5067337;28;20221;-59
2020/12/31 00:10:59;;;;;;;5.43;4.93;;;4.60;99.90;;;;;;5068242;28;20711;-59
2020/12/31 00:13:25;;;;;;;4.93;4.40;;;4.40;99.90;;;;;;5068468;28;20185;-58
2020/12/31 00:15:50;;;;;;;6.63;4.27;;;4.00;99.90;;;;;;5068333;28;20643;-58
2020/12/31 00:18:16;;;;;;;4.97;4.03;;;4.30;99.90;;;;;;5069532;28;20240;-59
2020/12/31 00:20:42;;;;;;;5.13;4.60;;;4.40;99.90;;;;;;5068261;28;20247;-58
2020/12/31 00:23:07;;;;;;;6.27;4.73;;;4.40;99.90;;;;;;5068471;28;20189;-59
2020/12/31 00:25:45;;;;;;;4.37;3.97;;;4.50;99.90;;;;;;5067290;28;20284;-59
2020/12/31 00:28:10;;;;;;;4.10;3.80;;;4.50;99.90;;;;;;5067778;28;20197;-59
2020/12/31 00:30:36;;;;;;;4.57;4.10;;;4.60;99.90;;;;;;5067866;28;20185;-58
2020/12/31 00:33:05;;;;;;;5.30;4.80;;;4.50;99.90;;;;;;5068292;28;20185;-59
2020/12/31 00:35:31;;;;;;;4.40;4.00;;;4.30;99.90;;;;;;5068088;28;20215;-58
2020/12/31 00:37:57;;;;;;;6.60;5.05;;;4.30;99.90;;;;;;5069485;28;20206;-59
2020/12/31 00:40:22;;;;;;;4.30;3.90;;;4.20;99.90;;;;;;5067980;28;20192;-58
2020/12/31 00:42:48;;;;;;;4.47;4.17;;;4.20;99.90;;;;;;5067638;28;20382;-58
2020/12/31 00:45:14;;;;;;;4.03;3.63;;;4.30;99.90;;;;;;5068542;28;20185;-58
2020/12/31 00:47:39;;;;;;;3.73;3.43;;;4.50;99.90;;;;;;5048531;28;20639;-58
2020/12/31 00:50:08;;;;;;;4.40;3.90;;;4.60;99.90;;;;;;5047754;28;20272;-58
2020/12/31 00:52:33;;;;;;;4.28;3.55;;;4.70;99.90;;;;;;5048232;28;20201;-58
2020/12/31 00:54:59;;;;;;;3.43;3.13;;;4.70;99.90;;;;;;5062526;28;20810;-58
2020/12/31 00:57:24;;;;;;;2.93;2.40;;;4.70;99.90;;;;;;5067968;28;20247;-58
2020/12/31 00:59:50;;;;;;;2.60;2.40;;;4.50;99.90;;;;;;5066526;28;20226;-58
2020/12/31 01:02:15;;;;;;;2.67;2.20;;;4.60;99.90;;;;;;5067947;28;20658;-58
2020/12/31 01:04:41;;;;;;;2.80;2.47;;;4.60;99.90;;;;;;5067800;28;20189;-58
2020/12/31 01:07:07;;;;;;;3.83;2.70;;;4.60;99.90;;;;;;5067940;28;20204;-58
2020/12/31 01:09:32;;;;;;;2.93;2.60;;;4.50;99.90;;;;;;5067524;28;20209;-59
2020/12/31 01:11:58;;;;;;;2.53;2.33;;;4.40;99.90;;;;;;5067859;28;20196;-58
2020/12/31 01:14:24;;;;;;;2.60;2.40;;;4.30;99.90;;;;;;5068922;28;20203;-59
2020/12/31 01:16:50;;;;;;;2.78;2.58;;;4.50;99.90;;;;;;5068382;28;20201;-59
2020/12/31 01:19:16;;;;;;;2.95;2.65;;;4.20;99.90;;;;;;5071821;28;20250;-58
2020/12/31 01:21:45;;;;;;;3.42;3.13;;;4.20;99.90;;;;;;5071953;28;20196;-58
2020/12/31 01:24:13;;;;;;;4.25;3.00;;;4.30;99.90;;;;;;5072011;28;20185;-58
2020/12/31 01:26:38;;;;;;;3.40;3.10;;;4.30;99.90;;;;;;5071722;28;20216;-58
2020/12/31 01:29:04;;;;;;;3.33;2.93;;;4.40;99.90;;;;;;5071367;28;20581;-59
2020/12/31 01:31:31;;;;;;;3.33;2.75;;;4.10;99.90;;;;;;5064934;28;20269;-58
2020/12/31 01:33:56;;;;;;;3.80;3.17;;;4.10;99.90;;;;;;5065418;28;20264;-58
2020/12/31 01:36:22;;;;;;;2.90;2.70;;;4.10;99.90;;;;;;5071365;28;20263;-58
2020/12/31 01:38:48;;;;;;;3.80;3.50;;;4.30;99.90;;;;;;5071269;28;20188;-57
2020/12/31 01:41:14;;;;;;;4.23;3.43;;;4.00;99.90;;;;;;5071316;28;20467;-58
2020/12/31 01:43:40;;;;;;;3.65;3.22;;;4.10;99.90;;;;;;5071404;28;20184;-58
2020/12/31 01:46:12;;;;;;;3.30;3.00;;;4.10;99.90;;;;;;5071236;28;20188;-58
2020/12/31 01:48:39;;;;;;;3.90;3.50;;;4.00;99.90;;;;;;5071079;28;20462;-59
2020/12/31 01:51:05;;;;;;;3.80;3.40;;;3.90;99.90;;;;;;5070541;28;20684;-57
2020/12/31 01:53:31;;;;;;;3.53;3.23;;;4.00;99.90;;;;;;5071231;28;20185;-59
2020/12/31 01:56:02;;;;;;;3.93;3.60;;;3.80;99.90;;;;;;5071154;28;20443;-58
2020/12/31 01:58:28;;;;;;;3.60;3.30;;;3.70;99.90;;;;;;5070894;28;21013;-58
2020/12/31 02:00:56;;;;;;;3.90;3.50;;;3.70;99.90;;;;;;5061413;28;20185;-58
2020/12/31 02:03:22;;;;;;;4.60;4.30;;;3.50;99.90;;;;;;5071057;28;20204;-59
2020/12/31 02:05:47;;;;;;;4.90;3.83;;;3.80;99.90;;;;;;5071125;28;20599;-59
2020/12/31 02:08:13;;;;;;;8.93;3.90;;;3.70;99.90;;;;;;5069831;28;20804;-58
2020/12/31 02:10:39;;;;;;;4.40;4.00;;;3.60;99.90;;;;;;5070808;28;20188;-58
2020/12/31 02:13:04;;;;;;;4.23;3.57;;;3.70;99.90;;;;;;5070962;28;20254;-58
2020/12/31 02:15:30;;;;;;;5.50;3.90;;;3.90;99.90;;;;;;5070885;28;20238;-57
2020/12/31 02:17:56;;;;;;;4.40;3.87;;;3.50;99.90;;;;;;5070580;28;20458;-58
2020/12/31 02:20:21;;;;;;;4.37;3.93;;;3.70;99.90;;;;;;5071047;28;20547;-59
2020/12/31 02:22:47;;;;;;;4.50;4.10;;;3.70;99.90;;;;;;5070788;28;20189;-59
2020/12/31 02:25:12;;;;;;;3.30;3.00;;;3.50;99.90;;;;;;5070072;28;20184;-58
2020/12/31 02:27:38;;;;;;;3.73;3.40;;;3.70;99.90;;;;;;5069925;28;20286;-59
2020/12/31 02:30:04;;;;;;;4.83;4.20;;;3.70;99.90;;;;;;5066634;28;20352;-58
2020/12/31 02:32:29;;;;;;;5.50;4.07;;;3.60;99.90;;;;;;5066512;28;20627;-59
2020/12/31 02:34:55;;;;;;;4.37;3.97;;;3.60;99.90;;;;;;5070626;28;20188;-59
2020/12/31 02:37:21;;;;;;;6.27;3.53;;;3.60;99.90;;;;;;5070362;28;20224;-59
2020/12/31 02:39:46;;;;;;;4.33;3.60;;;3.50;99.90;;;;;;5070136;28;20184;-58
2020/12/31 02:42:12;;;;;;;5.30;3.53;;;3.40;99.90;;;;;;5069467;28;20550;-59
2020/12/31 02:44:37;;;;;;;5.10;4.50;;;3.80;99.90;;;;;;5070728;28;20193;-58
2020/12/31 02:47:03;;;;;;;4.60;4.20;;;3.70;99.90;;;;;;5071547;28;20274;-59
2020/12/31 02:49:28;;;;;;;5.73;4.17;;;3.50;99.90;;;;;;5070080;28;20200;-58
2020/12/31 02:51:54;;;;;;;4.20;3.80;;;3.50;99.90;;;;;;5070069;28;20183;-59
2020/12/31 02:54:20;;;;;;;4.53;4.13;;;3.70;99.90;;;;;;5070293;28;20586;-58
2020/12/31 02:56:45;;;;;;;4.60;3.70;;;4.00;99.90;;;;;;5071388;28;20208;-58
2020/12/31 02:59:11;;;;;;;4.30;3.87;;;3.70;99.90;;;;;;5063803;28;20339;-58
2020/12/31 03:01:36;;;;;;;6.63;4.43;;;3.90;99.90;;;;;;5065287;28;20203;-58
2020/12/31 03:04:02;;;;;;;4.90;4.20;;;3.30;99.90;;;;;;5070065;28;20455;-58
2020/12/31 03:06:28;;;;;;;4.30;3.90;;;3.50;99.90;;;;;;5057291;28;20681;-59
2020/12/31 03:08:53;;;;;;;4.30;3.90;;;3.40;99.90;;;;;;5055866;28;20212;-58
2020/12/31 03:11:21;;;;;;;5.20;4.50;;;3.50;99.90;;;;;;5069703;28;20181;-58
2020/12/31 03:13:48;;;;;;;5.88;4.47;;;3.40;99.90;;;;;;5068297;28;20669;-58
2020/12/31 03:16:14;;;;;;;5.97;4.45;;;3.40;99.90;;;;;;5068780;28;20238;-58
2020/12/31 03:18:39;;;;;;;5.93;4.33;;;3.30;99.90;;;;;;5071157;28;20201;-58
2020/12/31 03:21:06;;;;;;;5.80;4.93;;;3.10;99.90;;;;;;5069397;28;20435;-58
2020/12/31 03:23:31;;;;;;;5.72;4.47;;;3.40;99.90;;;;;;5069536;28;20278;-58
2020/12/31 03:25:57;;;;;;;4.93;4.33;;;3.10;99.90;;;;;;5069472;28;20246;-58
2020/12/31 03:28:23;;;;;;;5.63;4.60;;;3.20;99.90;;;;;;5069247;28;20204;-58
2020/12/31 03:30:48;;;;;;;5.10;4.60;;;3.00;99.90;;;;;;5069224;28;20189;-58
2020/12/31 03:33:15;;;;;;;6.47;4.90;;;3.20;99.90;;;;;;5068596;28;20222;-58
2020/12/31 03:35:48;;;;;;;6.43;5.10;;;3.10;99.90;;;;;;5069447;28;20196;-57
2020/12/31 03:38:16;;;;;;;6.50;5.50;;;2.70;99.90;;;;;;5069044;28;20231;-57
2020/12/31 03:40:42;;;;;;;6.03;4.72;;;2.60;99.90;;;;;;5068783;28;20646;-57
2020/12/31 03:43:09;;;;;;;5.63;4.93;;;2.60;99.90;;;;;;5069284;28;20196;-57
2020/12/31 03:45:35;;;;;;;6.10;5.03;;;2.90;99.90;;;;;;5069297;28;20185;-58
2020/12/31 03:48:02;;;;;;;5.85;4.68;;;2.70;99.90;;;;;;5068840;28;20702;-58
2020/12/31 03:50:28;;;;;;;6.45;4.80;;;2.70;99.90;;;;;;5057397;28;20207;-58
2020/12/31 03:52:54;;;;;;;5.28;4.20;;;2.70;99.90;;;;;;5069561;28;20180;-58
2020/12/31 03:55:19;;;;;;;6.70;5.20;;;2.70;99.90;;;;;;5078189;28;20178;-57
2020/12/31 03:57:45;;;;;;;5.87;5.13;;;2.60;99.90;;;;;;5048933;28;20205;-58
2020/12/31 04:00:12;;;;;;;5.50;4.90;;;2.50;99.90;;;;;;5066402;28;20189;-57
2020/12/31 04:02:39;;;;;;;6.95;5.40;;;2.80;99.90;;;;;;5068896;28;20601;-57
2020/12/31 04:05:05;;;;;;;5.25;4.65;;;2.60;99.90;;;;;;5068383;28;20184;-58
2020/12/31 04:07:30;;;;;;;7.07;5.30;;;2.50;99.90;;;;;;5067779;28;20669;-59
2020/12/31 04:09:56;;;;;;;6.60;5.47;;;2.60;99.90;;;;;;5052418;28;20216;-58
2020/12/31 04:12:22;;;;;;;6.13;5.07;;;2.40;99.90;;;;;;5058819;28;20276;-58
2020/12/31 04:14:47;;;;;;;5.90;5.30;;;2.40;99.90;;;;;;5068661;28;20193;-58
2020/12/31 04:17:13;;;;;;;5.60;4.83;;;1.70;99.90;;;;;;5068591;28;20237;-57
2020/12/31 04:19:40;;;;;;;5.70;5.20;;;2.30;99.90;;;;;;5068193;28;20199;-58
2020/12/31 04:22:06;;;;;;;7.32;5.50;;;2.20;99.90;;;;;;5068689;28;20193;-57
2020/12/31 04:24:32;;;;;;;7.70;5.20;;;2.20;99.90;;;;;;5067646;28;20467;-57
2020/12/31 04:26:57;;;;;;;7.30;5.57;;;2.10;99.90;;;;;;5069839;28;20236;-58
2020/12/31 04:29:23;;;;;;;5.90;4.60;;;1.40;99.90;;;;;;5068116;28;20197;-58
2020/12/31 04:31:49;;;;;;;6.03;5.03;;;1.50;99.90;;;;;;5068498;28;20235;-58
2020/12/31 04:34:17;;;;;;;6.83;5.67;;;1.90;99.90;;;;;;5068208;28;20563;-57
2020/12/31 04:36:43;;;;;;;5.60;5.00;;;1.80;99.90;;;;;;5068250;28;20633;-57
2020/12/31 04:39:08;;;;;;;5.60;4.63;;;1.70;99.90;;;;;;5067992;28;20291;-58
2020/12/31 04:41:34;;;;;;;7.23;5.60;;;1.70;99.90;;;;;;5067427;28;20184;-58
2020/12/31 04:44:02;;;;;;;6.40;5.40;;;1.80;99.90;;;;;;5068188;28;20594;-58
2020/12/31 04:46:30;;;;;;;5.38;4.88;;;1.90;99.90;;;;;;5068044;28;20204;-58
2020/12/31 04:49:05;;;;;;;6.57;4.90;;;1.60;99.90;;;;;;5067614;28;20201;-57
2020/12/31 04:51:36;;;;;;;5.97;5.38;;;1.70;99.90;;;;;;5067699;28;20212;-57
2020/12/31 04:54:12;;;;;;;8.15;5.65;;;1.80;99.90;;;;;;5068252;28;20642;-57
2020/12/31 04:56:38;;;;;;;4.90;3.85;;;2.00;99.90;;;;;;5067478;28;20205;-57
2020/12/31 04:59:06;;;;;;;4.90;4.30;;;2.10;99.90;;;;;;5067772;28;20751;-57
2020/12/31 05:01:32;;;;;;;5.47;4.53;;;1.70;99.90;;;;;;5059747;28;20190;-57
2020/12/31 05:03:58;;;;;;;3.33;3.03;;;2.00;99.90;;;;;;5067910;28;20676;-57
2020/12/31 05:06:26;;;;;;;4.67;3.40;;;2.00;99.90;;;;;;5067987;28;20557;-57
2020/12/31 05:08:52;;;;;;;3.15;2.85;;;2.00;99.90;;;;;;5067689;28;20350;-57
2020/12/31 05:11:18;;;;;;;4.33;3.70;;;2.10;99.90;;;;;;5068067;28;20276;-57
2020/12/31 05:13:48;;;;;;;4.07;2.97;;;2.10;99.90;;;;;;5067092;28;20434;-58
2020/12/31 05:16:25;;;;;;;4.25;3.40;;;2.40;99.90;;;;;;5067890;28;20181;-58
2020/12/31 05:18:51;;;;;;;4.30;3.22;;;2.40;99.90;;;;;;5067544;28;20196;-57
2020/12/31 05:21:17;;;;;;;3.20;2.90;;;2.40;99.90;;;;;;5071941;28;20192;-57
2020/12/31 05:23:45;;;;;;;3.20;2.90;;;2.40;99.90;;;;;;5067368;28;20527;-58
2020/12/31 05:26:26;;;;;;;3.75;3.20;;;2.20;99.90;;;;;;5047939;28;20752;-58
2020/12/31 05:28:53;;;;;;;2.88;2.53;;;2.40;99.90;;;;;;5061564;28;20303;-58
2020/12/31 05:31:21;;;;;;;4.15;2.90;;;2.40;99.90;;;;;;5061689;28;20682;-58
2020/12/31 05:33:47;;;;;;;4.35;3.55;;;2.40;99.90;;;;;;5060904;28;20189;-58
2020/12/31 05:36:21;;;;;;;2.63;2.43;;;2.40;99.90;;;;;;5067629;28;20195;-58
2020/12/31 05:39:02;;;;;;;3.55;3.00;;;2.10;99.90;;;;;;5067357;28;20430;-58
2020/12/31 05:41:33;;;;;;;3.28;2.97;;;2.20;99.90;;;;;;5067676;28;20646;-58
2020/12/31 05:43:59;;;;;;;4.80;3.30;;;2.40;99.90;;;;;;5067952;28;20593;-58
2020/12/31 05:46:27;;;;;;;3.72;3.17;;;2.40;99.90;;;;;;5067483;28;20247;-58
2020/12/31 05:48:56;;;;;;;4.00;3.42;;;2.30;99.90;;;;;;5066419;28;20201;-58
2020/12/31 05:51:26;;;;;;;3.00;2.70;;;2.20;99.90;;;;;;5067298;28;20634;-58
2020/12/31 05:53:52;;;;;;;3.60;2.88;;;2.40;99.90;;;;;;5067418;28;20662;-58
2020/12/31 05:56:20;;;;;;;3.17;2.90;;;2.40;99.90;;;;;;5055875;28;20189;-58
2020/12/31 05:58:49;;;;;;;4.55;3.50;;;2.10;99.90;;;;;;5066233;28;20563;-58
2020/12/31 06:01:15;;;;;;;4.70;3.60;;;2.10;99.90;;;;;;5059983;28;20182;-58
2020/12/31 06:03:50;;;;;;;3.22;2.92;;;2.10;99.90;;;;;;5068759;28;20185;-58
2020/12/31 06:06:21;;;;;;;3.88;3.55;;;2.10;99.90;;;;;;5070004;28;20198;-58
2020/12/31 06:09:02;;;;;;;3.55;3.20;;;2.20;99.90;;;;;;5070692;28;20265;-58
2020/12/31 06:11:37;;;;;;;5.38;3.75;;;2.40;99.90;;;;;;5071419;28;20227;-58
2020/12/31 06:14:04;;;;;;;4.25;3.83;;;2.30;99.90;;;;;;5070742;28;20264;-58
2020/12/31 06:16:37;;;;;;;4.50;3.38;;;2.20;99.90;;;;;;5070358;28;20188;-59
2020/12/31 06:19:25;;;;;;;4.15;3.72;;;2.00;99.90;;;;;;5060960;28;20263;-58
2020/12/31 06:22:02;;;;;;;3.83;3.45;;;2.30;99.90;;;;;;5056985;28;20192;-59
2020/12/31 06:24:37;;;;;;;5.68;3.50;;;2.20;99.90;;;;;;5057506;28;20189;-58
2020/12/31 06:27:08;;;;;;;3.53;3.22;;;2.20;99.90;;;;;;5070760;28;20228;-59
2020/12/31 06:29:42;;;;;;;3.50;3.20;;;2.10;99.90;;;;;;5070544;28;20698;-59
2020/12/31 06:32:19;;;;;;;3.85;3.55;;;2.40;99.90;;;;;;5070488;28;20181;-59
2020/12/31 06:34:45;;;;;;;3.75;3.00;;;2.20;99.90;;;;;;5070478;28;20689;-59
2020/12/31 06:37:12;;;;;;;3.50;3.20;;;2.10;99.90;;;;;;5070565;28;20243;-58
2020/12/31 06:39:39;;;;;;;3.92;3.40;;;2.10;99.90;;;;;;5069922;28;20638;-60
2020/12/31 06:42:06;;;;;;;3.88;3.47;;;2.20;99.90;;;;;;5070898;28;20189;-58
2020/12/31 06:44:32;;;;;;;3.97;3.15;;;2.50;99.90;;;;;;5070324;28;20188;-58
2020/12/31 06:46:58;;;;;;;2.80;2.50;;;2.40;99.90;;;;;;5070144;28;20710;-57
2020/12/31 06:49:51;;;;;;;4.13;3.40;;;2.30;99.90;;;;;;5071402;28;20255;-58
2020/12/31 06:52:19;;;;;;;5.85;3.78;;;2.50;99.90;;;;;;5070188;28;20181;-58
2020/12/31 06:54:44;;;;;;;3.95;3.42;;;2.40;99.90;;;;;;5070450;28;20192;-58
2020/12/31 06:57:10;;;;;;;3.63;3.33;;;2.50;99.90;;;;;;5069782;28;20204;-58
2020/12/31 06:59:38;;;;;;;5.13;4.10;;;2.40;99.90;;;;;;5069896;28;20598;-58
2020/12/31 07:02:24;;;;;;;5.20;3.72;;;2.30;99.90;;;;;;5069603;28;20668;-58
2020/12/31 07:04:50;;;;;;;4.30;3.90;;;2.30;99.90;;;;;;5070260;28;20193;-58
2020/12/31 07:07:18;;;;;;;4.80;4.30;;;2.40;99.90;;;;;;5069950;28;20219;-58
2020/12/31 07:09:54;;;;;;;4.85;4.40;;;2.40;99.90;;;;;;5069571;28;20219;-59
2020/12/31 07:12:39;;;;;;;5.05;4.55;;;2.50;99.90;;;;;;5070068;28;20554;-57
2020/12/31 07:15:07;;;;;;;4.53;3.95;;;2.60;99.90;;;;;;5068742;28;20186;-58
2020/12/31 07:17:37;;;;;;;4.22;3.83;;;2.40;99.90;;;;;;5070075;28;20205;-58
2020/12/31 07:20:07;;;;;;;5.30;4.60;;;2.80;99.90;;;;;;5056241;28;20272;-58
2020/12/31 07:22:39;;;;;;;5.88;4.45;;;2.60;99.90;;;;;;5069483;28;20192;-59
2020/12/31 07:25:05;;;;;;;4.47;3.70;;;2.40;99.90;;;;;;5069614;28;20197;-58
2020/12/31 07:27:33;;;;;;;5.00;4.40;;;2.50;99.90;;;;;;5069561;28;20205;-58
2020/12/31 07:30:00;;;;;;;7.25;4.63;;;2.60;99.90;;;;;;5068320;28;20284;-58
2020/12/31 07:32:54;;;;;;;5.50;4.97;;;2.90;99.90;;;;;;5069373;28;20188;-58
2020/12/31 07:35:25;;;;;;;4.05;3.75;;;2.90;99.90;;;;;;5069531;28;20196;-58
2020/12/31 07:38:08;;;;;;;5.32;4.82;;;2.90;99.90;;;;;;5069189;28;20213;-58
2020/12/31 07:40:49;;;;;;;4.40;4.00;;;3.00;99.90;;;;;;5069175;28;20199;-59
2020/12/31 07:43:18;;;;;;;6.07;4.70;;;3.20;99.90;;;;;;5080338;28;20188;-58
2020/12/31 07:45:52;;;;;;;5.47;4.95;;;3.20;99.90;;;;;;5052858;28;20193;-58
2020/12/31 07:48:18;;;;;;;4.90;4.40;;;3.00;99.90;;;;;;5062616;28;20231;-58
2020/12/31 07:50:44;;;;;;;5.55;4.78;;;3.10;99.90;;;;;;5069090;28;20181;-58
2020/12/31 07:53:12;;;;;;;5.75;4.47;;;3.20;99.90;;;;;;5069102;28;20281;-58
2020/12/31 07:55:45;;;;;;;5.20;4.70;;;2.40;99.90;;;;;;5068839;28;20181;-58
2020/12/31 07:58:12;;;;;;;6.40;4.97;;;2.80;99.90;;;;;;5070240;28;20208;-58
2020/12/31 08:00:38;;;;;;;6.88;4.95;;;3.10;99.90;;;;;;5068613;28;20275;-58
2020/12/31 08:03:08;;;;;;;6.28;5.10;;;3.00;99.90;;;;;;5068839;28;20275;-58
2020/12/31 08:05:34;;;;;;;4.40;4.00;;;3.30;99.90;;;;;;5067813;28;20211;-59
2020/12/31 08:07:59;;;;;;;5.90;4.93;;;2.70;99.90;;;;;;5068501;28;20206;-59
2020/12/31 08:10:25;;;;;;;6.27;5.17;;;3.30;99.90;;;;;;5068614;28;20657;-58
2020/12/31 08:12:59;;;;;;;7.07;5.20;;;3.10;99.90;;;;;;5068691;28;20185;-58
2020/12/31 08:15:26;;;;;;;6.07;4.80;;;3.50;99.90;;;;;;5068268;28;20203;-59
2020/12/31 08:17:53;;;;;;;11.40;7.60;;;3.60;99.90;;;;;;5079711;28;20207;-59
2020/12/31 08:20:21;;;;;;;6.35;5.40;;;3.30;99.90;;;;;;5048441;28;20265;-58
2020/12/31 08:22:55;;;;;;;6.53;5.53;;;3.50;99.90;;;;;;5064482;28;20181;-58
2020/12/31 08:25:24;;;;;;;5.53;5.00;;;3.60;99.90;;;;;;5068370;28;20192;-59
2020/12/31 08:27:51;;;;;;;8.13;5.70;;;3.50;99.90;;;;;;5067909;28;20213;-59
2020/12/31 08:30:22;;;;;;;6.70;5.78;;;3.60;99.90;;;;;;5068118;28;20205;-59
2020/12/31 08:32:50;;;;;;;6.63;5.13;;;3.70;99.90;;;;;;5065280;28;20197;-58
2020/12/31 08:35:43;;;;;;;5.80;5.20;;;3.60;99.90;;;;;;5068781;28;20614;-59
2020/12/31 08:38:12;;;;;;;7.78;5.20;;;3.70;99.90;;;;;;5066055;28;20212;-60
2020/12/31 08:40:49;;;;;;;6.57;5.28;;;3.60;99.90;;;;;;5066179;28;20189;-59
2020/12/31 08:43:23;;;;;;;7.53;5.68;;;3.80;99.90;;;;;;5067924;28;20184;-58
2020/12/31 08:45:50;;;;;;;8.35;5.85;;;3.70;99.90;;;;;;5068251;28;20227;-59
2020/12/31 08:48:21;;;;;;;6.10;5.50;;;3.70;99.90;;;;;;5067873;28;20266;-58
2020/12/31 08:51:02;;;;;;;5.88;5.28;;;3.70;99.90;;;;;;5064811;28;20594;-58
2020/12/31 08:53:28;;;;;;;6.30;5.43;;;4.00;99.90;;;;;;5063001;28;20207;-58
2020/12/31 08:55:57;;;;;;;6.75;5.70;;;3.90;99.90;;;;;;5067223;28;20345;-58
2020/12/31 08:58:30;;;;;;;6.20;5.60;;;4.00;99.90;;;;;;5067475;28;20293;-59
2020/12/31 09:00:59;;;;;;;6.93;5.82;;;4.10;99.90;;;;;;5057628;28;20651;-59
2020/12/31 09:03:25;;;;;;;6.63;5.93;;;4.00;99.90;;;;;;5062696;28;20258;-59
2020/12/31 09:05:58;;;;;;;5.88;5.28;;;3.90;99.90;;;;;;5058392;28;20623;-59
2020/12/31 09:08:25;;;;;;;6.57;5.88;;;4.20;99.90;;;;;;5067727;28;20211;-58
2020/12/31 09:11:05;;;;;;;6.82;6.03;;;4.00;99.90;;;;;;5067631;28;20196;-58
2020/12/31 09:13:39;;;;;;;6.95;6.07;;;3.90;99.90;;;;;;5066661;28;20187;-59
2020/12/31 09:16:08;;;;;;;8.90;6.25;;;4.00;99.90;;;;;;5067809;28;20212;-60
2020/12/31 09:18:34;;;;;;;8.43;6.68;;;3.90;99.90;;;;;;5067211;28;20205;-60
2020/12/31 09:20:59;;;;;;;6.83;5.50;;;4.10;99.90;;;;;;5067376;28;20185;-59
2020/12/31 09:23:25;;;;;;;8.57;7.13;;;4.10;99.90;;;;;;5068972;28;20609;-59
2020/12/31 09:25:51;;;;;;;7.57;5.93;;;4.20;99.90;;;;;;5054002;28;20818;-59
2020/12/31 09:28:17;;;;;;;6.43;5.57;;;4.30;99.90;;;;;;5056703;28;20287;-59
2020/12/31 09:30:44;;;;;;;6.80;5.85;;;4.60;99.90;;;;;;5066221;28;20210;-60
2020/12/31 09:33:14;;;;;;;6.78;6.07;;;4.70;99.90;;;;;;5067247;28;20185;-60
2020/12/31 09:35:40;;;;;;;6.50;5.90;;;4.80;99.90;;;;;;5068161;28;20201;-59
2020/12/31 09:38:06;;;;;;;18.63;10.52;;;4.30;99.90;;;;;;5072909;28;20833;-59
2020/12/31 09:40:31;;;;;;;6.90;6.03;;;4.20;99.90;;;;;;5065480;28;20401;-59
2020/12/31 09:42:57;;;;;;;6.80;5.80;;;3.80;99.90;;;;;;5071041;28;20181;-59
2020/12/31 09:45:23;;;;;;;11.07;7.17;;;4.50;99.90;;;;;;5071050;28;20212;-57
2020/12/31 09:47:48;;;;;;;8.77;6.77;;;4.20;99.90;;;;;;5070129;28;20243;-59
2020/12/31 09:50:14;;;;;;;12.17;9.90;;;4.10;99.90;;;;;;5070725;28;20334;-60
2020/12/31 09:52:43;;;;;;;7.33;6.50;;;4.40;99.90;;;;;;5070919;28;20238;-60
2020/12/31 09:55:08;;;;;;;6.63;6.00;;;4.40;99.90;;;;;;5056428;28;20960;-59
2020/12/31 09:57:35;;;;;;;7.07;6.33;;;4.10;99.90;;;;;;5059378;28;20201;-59
2020/12/31 10:00:02;;;;;;;8.95;6.30;;;4.40;99.90;;;;;;5070661;28;20189;-60
2020/12/31 10:02:27;;;;;;;8.27;6.40;;;4.70;99.90;;;;;;5071181;28;20579;-59
2020/12/31 10:04:53;;;;;;;7.47;6.73;;;4.80;99.90;;;;;;5066576;28;20400;-59
2020/12/31 10:07:19;;;;;;;6.97;6.10;;;4.60;99.90;;;;;;5071067;28;20201;-59
2020/12/31 10:09:44;;;;;;;6.77;5.97;;;4.70;99.90;;;;;;5070347;28;20741;-60
2020/12/31 10:12:13;;;;;;;7.53;6.73;;;4.80;99.90;;;;;;5070759;28;20188;-57
2020/12/31 10:14:39;;;;;;;7.05;5.95;;;5.00;99.90;;;;;;5070395;28;20261;-57
2020/12/31 10:17:05;;;;;;;7.05;5.70;;;4.70;99.90;;;;;;5070655;28;20323;-59
2020/12/31 10:19:30;;;;;;;8.00;6.30;;;4.90;99.90;;;;;;5070526;28;20267;-59
2020/12/31 10:21:56;;;;;;;7.43;6.40;;;5.10;99.90;;;;;;5070915;28;20809;-59
2020/12/31 10:24:22;;;;;;;7.07;6.37;;;4.80;99.90;;;;;;5071924;28;20550;-59
2020/12/31 10:26:47;;;;;;;7.13;5.50;;;5.10;99.90;;;;;;5070618;28;20202;-59
2020/12/31 10:29:16;;;;;;;6.70;5.80;;;5.40;99.90;;;;;;5070019;28;20206;-59
2020/12/31 10:31:42;;;;;;;6.63;5.80;;;5.70;99.90;;;;;;5072137;28;20179;-59
2020/12/31 10:34:11;;;;;;;7.50;6.60;;;5.60;99.90;;;;;;5069721;28;20341;-60
2020/12/31 10:36:37;;;;;;;6.05;5.40;;;5.80;99.90;;;;;;5062362;28;20212;-59
2020/12/31 10:39:04;;;;;;;7.43;5.40;;;5.80;99.90;;;;;;5080564;28;20746;-60
2020/12/31 10:41:30;;;;;;;5.30;4.72;;;5.80;99.90;;;;;;5067891;28;20195;-60
2020/12/31 10:43:59;;;;;;;5.30;4.80;;;6.00;98.50;;;;;;5070201;28;20715;-59
2020/12/31 10:46:26;;;;;;;6.25;4.45;;;6.10;97.50;;;;;;5061494;28;20280;-59
2020/12/31 10:48:52;;;;;;;5.65;4.57;;;6.00;97.50;;;;;;5064594;28;20257;-60
2020/12/31 10:51:17;;;;;;;5.72;4.30;;;6.00;97.50;;;;;;5069611;28;20230;-57
2020/12/31 10:53:44;;;;;;;6.27;4.50;;;5.90;98.00;;;;;;5068978;28;20226;-59
2020/12/31 10:56:09;;;;;;;6.70;5.35;;;5.80;99.10;;;;;;5080458;28;20659;-60
2020/12/31 10:58:36;;;;;;;4.43;4.03;;;5.50;99.90;;;;;;5055043;28;20304;-57
2020/12/31 11:01:03;;;;;;;5.25;4.15;;;5.30;99.90;;;;;;5060424;28;20473;-59
2020/12/31 11:03:29;;;;;;;4.53;4.07;;;5.60;99.90;;;;;;5069944;28;20190;-59
2020/12/31 11:05:55;;;;;;;4.97;4.10;;;5.20;99.90;;;;;;5069462;28;20183;-59
2020/12/31 11:08:20;;;;;;;5.70;4.90;;;5.40;99.90;;;;;;5069865;28;20209;-60
2020/12/31 11:10:48;;;;;;;4.93;4.23;;;5.30;99.90;;;;;;5068607;28;20305;-59
2020/12/31 11:13:14;;;;;;;6.07;4.82;;;5.30;99.90;;;;;;5069632;28;20272;-60
2020/12/31 11:15:40;;;;;;;5.90;4.07;;;5.30;99.90;;;;;;5069636;28;20207;-59
2020/12/31 11:18:06;;;;;;;4.07;3.70;;;5.50;99.90;;;;;;5069592;28;20209;-57
2020/12/31 11:20:32;;;;;;;5.88;4.28;;;5.30;99.90;;;;;;5069241;28;20529;-59
2020/12/31 11:22:58;;;;;;;5.80;4.45;;;5.50;99.90;;;;;;5070747;28;20187;-59
2020/12/31 11:25:23;;;;;;;4.87;4.37;;;5.50;99.90;;;;;;5069138;28;20608;-59
2020/12/31 11:27:49;;;;;;;4.63;4.10;;;5.50;99.90;;;;;;5057557;28;20249;-59
2020/12/31 11:30:14;;;;;;;4.10;3.60;;;5.70;99.90;;;;;;5069009;28;20559;-59
2020/12/31 11:32:40;;;;;;;4.20;3.80;;;5.80;99.90;;;;;;5068989;28;20214;-59
2020/12/31 11:35:06;;;;;;;4.72;4.28;;;5.90;99.90;;;;;;5066279;28;20213;-59
2020/12/31 11:37:33;;;;;;;4.70;3.93;;;5.60;99.90;;;;;;5069055;28;20211;-58
2020/12/31 11:39:59;;;;;;;5.47;4.88;;;5.50;99.90;;;;;;5068761;28;20438;-59
2020/12/31 11:42:24;;;;;;;5.00;4.20;;;5.80;99.90;;;;;;5069437;28;20329;-59
2020/12/31 11:44:50;;;;;;;5.10;4.60;;;5.70;99.90;;;;;;5068331;28;20568;-59
2020/12/31 11:47:16;;;;;;;6.10;4.23;;;5.40;99.90;;;;;;5068616;28;20228;-63
2020/12/31 11:49:41;;;;;;;4.93;4.50;;;5.40;99.90;;;;;;5068660;28;20797;-59
2020/12/31 11:52:07;;;;;;;4.47;4.07;;;5.50;99.90;;;;;;5070201;28;20188;-60
2020/12/31 11:54:33;;;;;;;6.23;5.13;;;5.80;99.90;;;;;;5070265;28;20194;-60
2020/12/31 11:56:58;;;;;;;4.73;4.33;;;5.80;99.90;;;;;;5068805;28;20332;-60
2020/12/31 11:59:24;;;;;;;5.40;4.60;;;6.10;99.90;;;;;;5060739;28;20186;-59
2020/12/31 12:01:51;;;;;;;5.55;4.80;;;6.00;99.90;;;;;;5062298;28;20201;-58
2020/12/31 12:04:20;;;;;;;4.93;4.40;;;6.10;99.90;;;;;;5068082;28;20214;-59
2020/12/31 12:06:54;;;;;;;5.05;4.55;;;6.20;99.90;;;;;;5058094;28;20209;-59
2020/12/31 12:09:20;;;;;;;5.90;5.03;;;6.30;99.90;;;;;;5068458;28;20233;-58
2020/12/31 12:11:46;;;;;;;5.45;4.68;;;6.50;99.90;;;;;;5068162;28;20223;-58
2020/12/31 12:14:13;;;;;;;7.95;5.28;;;6.20;99.90;;;;;;5068583;28;20181;-59
2020/12/31 12:16:47;;;;;;;5.57;4.78;;;6.30;99.90;;;;;;5068050;28;20546;-59
2020/12/31 12:19:12;;;;;;;6.03;4.85;;;6.40;99.90;;;;;;5067464;28;20194;-59
2020/12/31 12:21:38;;;;;;;5.63;4.90;;;6.10;99.90;;;;;;5067959;28;20185;-59
2020/12/31 12:24:05;;;;;;;5.13;4.63;;;6.10;99.90;;;;;;5068014;28;20198;-59
2020/12/31 12:26:35;;;;;;;4.97;4.25;;;6.20;99.90;;;;;;5067629;28;20188;-59
2020/12/31 12:29:02;;;;;;;5.90;4.63;;;6.20;99.90;;;;;;5067838;28;20313;-59
2020/12/31 12:31:35;;;;;;;5.43;4.93;;;6.00;99.90;;;;;;5067905;28;20182;-59
2020/12/31 12:34:01;;;;;;;5.00;4.35;;;6.00;99.90;;;;;;5068174;28;20295;-59
2020/12/31 12:36:27;;;;;;;5.37;4.83;;;6.00;99.90;;;;;;5063951;28;20711;-59
2020/12/31 12:38:53;;;;;;;5.28;4.75;;;6.00;99.90;;;;;;5067871;28;20803;-59
2020/12/31 12:41:19;;;;;;;6.57;4.93;;;6.10;99.90;;;;;;5067858;28;20186;-58
2020/12/31 12:43:45;;;;;;;5.47;4.75;;;6.20;99.90;;;;;;5068092;28;20462;-59
2020/12/31 12:46:15;;;;;;;5.43;4.60;;;5.90;99.90;;;;;;5069016;28;20749;-59
2020/12/31 12:48:41;;;;;;;5.18;4.50;;;6.30;99.90;;;;;;5067398;28;20219;-59
2020/12/31 12:51:07;;;;;;;5.93;5.33;;;5.90;99.90;;;;;;5067770;28;20563;-59
2020/12/31 12:53:32;;;;;;;4.87;4.47;;;6.20;99.90;;;;;;5068584;28;20441;-59
2020/12/31 12:55:58;;;;;;;5.60;4.63;;;6.00;99.90;;;;;;5068026;28;20584;-59
2020/12/31 12:58:23;;;;;;;5.40;4.30;;;6.20;99.90;;;;;;5067289;28;20203;-58
2020/12/31 13:00:49;;;;;;;4.90;4.40;;;6.10;99.90;;;;;;5067364;28;20709;-59